sensor_id;sensor_type;location;lat;lon;timestamp;P1;durP1;ratioP1;P2;durP2;ratioP2
10667;SDS011;5382;42.136;24.796;2023-06-22T00:01:15;11.65;;;9.43;;
10667;SDS011;5382;42.136;24.796;2023-06-22T00:03:42;12.52;;;9.02;;
10667;SDS011;5382;42.136;24.796;2023-06-22T00:06:09;9.98;;;8.88;;
10667;SDS011;5382;42.136;24.796;2023-06-22T00:08:36;10.68;;;8.75;;
10667;SDS011;5382;42.136;24.796;2023-06-22T00:11:04;10.00;;;8.93;;
10667;SDS011;5382;42.136;24.796;2023-06-22T00:13:31;9.85;;;8.90;;
10667;SDS011;5382;42.136;24.796;2023-06-22T00:15:58;11.27;;;9.43;;
10667;SDS011;5382;42.136;24.796;2023-06-22T00:18:25;9.98;;;8.95;;
10667;SDS011;5382;42.136;24.796;2023-06-22T00:20:53;10.23;;;8.70;;
10667;SDS011;5382;42.136;24.796;2023-06-22T00:23:23;10.68;;;9.57;;
10667;SDS011;5382;42.136;24.796;2023-06-22T00:25:50;10.10;;;9.07;;
10667;SDS011;5382;42.136;24.796;2023-06-22T00:28:18;9.68;;;8.77;;
10667;SDS011;5382;42.136;24.796;2023-06-22T00:30:45;9.65;;;8.70;;
10667;SDS011;5382;42.136;24.796;2023-06-22T00:33:12;14.25;;;9.70;;
10667;SDS011;5382;42.136;24.796;2023-06-22T00:35:41;9.45;;;8.57;;
10667;SDS011;5382;42.136;24.796;2023-06-22T00:38:08;10.70;;;9.65;;
10667;SDS011;5382;42.136;24.796;2023-06-22T00:40:35;9.88;;;8.77;;
10667;SDS011;5382;42.136;24.796;2023-06-22T00:43:02;12.25;;;9.77;;
10667;SDS011;5382;42.136;24.796;2023-06-22T00:45:31;11.13;;;9.13;;
10667;SDS011;5382;42.136;24.796;2023-06-22T00:47:59;11.43;;;9.52;;
10667;SDS011;5382;42.136;24.796;2023-06-22T00:50:26;11.10;;;9.65;;
10667;SDS011;5382;42.136;24.796;2023-06-22T00:53:00;11.27;;;10.18;;
10667;SDS011;5382;42.136;24.796;2023-06-22T00:55:29;10.55;;;9.32;;
10667;SDS011;5382;42.136;24.796;2023-06-22T00:57:56;10.45;;;9.35;;
10667;SDS011;5382;42.136;24.796;2023-06-22T01:00:23;15.18;;;10.60;;
10667;SDS011;5382;42.136;24.796;2023-06-22T01:02:52;10.00;;;9.10;;
10667;SDS011;5382;42.136;24.796;2023-06-22T01:05:20;10.05;;;9.02;;
10667;SDS011;5382;42.136;24.796;2023-06-22T01:07:54;10.73;;;9.45;;
10667;SDS011;5382;42.136;24.796;2023-06-22T01:10:33;11.00;;;9.52;;
10667;SDS011;5382;42.136;24.796;2023-06-22T01:13:07;11.18;;;10.02;;
10667;SDS011;5382;42.136;24.796;2023-06-22T01:15:42;10.90;;;9.80;;
10667;SDS011;5382;42.136;24.796;2023-06-22T01:18:15;12.05;;;9.57;;
10667;SDS011;5382;42.136;24.796;2023-06-22T01:20:44;10.68;;;9.73;;
10667;SDS011;5382;42.136;24.796;2023-06-22T01:23:17;10.02;;;8.98;;
10667;SDS011;5382;42.136;24.796;2023-06-22T01:25:55;10.57;;;9.45;;
10667;SDS011;5382;42.136;24.796;2023-06-22T01:28:43;10.77;;;9.70;;
10667;SDS011;5382;42.136;24.796;2023-06-22T01:31:13;12.40;;;10.60;;
10667;SDS011;5382;42.136;24.796;2023-06-22T01:33:43;11.70;;;9.27;;
10667;SDS011;5382;42.136;24.796;2023-06-22T01:36:12;11.65;;;10.50;;
10667;SDS011;5382;42.136;24.796;2023-06-22T01:38:40;11.35;;;10.02;;
10667;SDS011;5382;42.136;24.796;2023-06-22T01:41:08;10.35;;;9.45;;
10667;SDS011;5382;42.136;24.796;2023-06-22T01:43:36;13.25;;;10.20;;
10667;SDS011;5382;42.136;24.796;2023-06-22T01:46:05;13.43;;;10.18;;
10667;SDS011;5382;42.136;24.796;2023-06-22T01:48:33;11.45;;;9.70;;
10667;SDS011;5382;42.136;24.796;2023-06-22T01:51:00;13.52;;;10.38;;
10667;SDS011;5382;42.136;24.796;2023-06-22T01:53:28;11.68;;;10.52;;
10667;SDS011;5382;42.136;24.796;2023-06-22T01:55:55;13.23;;;11.50;;
10667;SDS011;5382;42.136;24.796;2023-06-22T01:58:23;19.38;;;14.27;;
10667;SDS011;5382;42.136;24.796;2023-06-22T02:00:53;15.05;;;13.32;;
10667;SDS011;5382;42.136;24.796;2023-06-22T02:03:28;14.60;;;12.80;;
10667;SDS011;5382;42.136;24.796;2023-06-22T02:06:01;20.70;;;17.27;;
10667;SDS011;5382;42.136;24.796;2023-06-22T02:08:30;15.85;;;14.20;;
10667;SDS011;5382;42.136;24.796;2023-06-22T02:11:01;28.98;;;25.88;;
10667;SDS011;5382;42.136;24.796;2023-06-22T02:13:29;43.53;;;39.10;;
10667;SDS011;5382;42.136;24.796;2023-06-22T02:15:59;41.95;;;36.75;;
10667;SDS011;5382;42.136;24.796;2023-06-22T02:18:28;37.10;;;33.17;;
10667;SDS011;5382;42.136;24.796;2023-06-22T02:20:55;33.38;;;27.70;;
10667;SDS011;5382;42.136;24.796;2023-06-22T02:23:22;29.40;;;25.10;;
10667;SDS011;5382;42.136;24.796;2023-06-22T02:25:49;32.88;;;29.20;;
10667;SDS011;5382;42.136;24.796;2023-06-22T02:28:16;33.00;;;28.05;;
10667;SDS011;5382;42.136;24.796;2023-06-22T02:30:42;33.13;;;28.42;;
10667;SDS011;5382;42.136;24.796;2023-06-22T02:33:09;26.90;;;24.20;;
10667;SDS011;5382;42.136;24.796;2023-06-22T02:35:38;27.98;;;25.05;;
10667;SDS011;5382;42.136;24.796;2023-06-22T02:38:05;30.73;;;23.08;;
10667;SDS011;5382;42.136;24.796;2023-06-22T02:40:33;27.35;;;21.75;;
10667;SDS011;5382;42.136;24.796;2023-06-22T02:43:00;24.15;;;20.48;;
10667;SDS011;5382;42.136;24.796;2023-06-22T02:45:27;23.40;;;16.65;;
10667;SDS011;5382;42.136;24.796;2023-06-22T02:47:55;20.98;;;16.50;;
10667;SDS011;5382;42.136;24.796;2023-06-22T02:50:22;19.98;;;15.65;;
10667;SDS011;5382;42.136;24.796;2023-06-22T02:52:50;25.30;;;16.58;;
10667;SDS011;5382;42.136;24.796;2023-06-22T02:55:17;20.15;;;14.93;;
10667;SDS011;5382;42.136;24.796;2023-06-22T02:57:44;16.08;;;14.32;;
10667;SDS011;5382;42.136;24.796;2023-06-22T03:00:13;13.52;;;12.18;;
10667;SDS011;5382;42.136;24.796;2023-06-22T03:02:43;11.75;;;10.55;;
10667;SDS011;5382;42.136;24.796;2023-06-22T03:05:10;17.15;;;11.63;;
10667;SDS011;5382;42.136;24.796;2023-06-22T03:07:39;18.98;;;14.30;;
10667;SDS011;5382;42.136;24.796;2023-06-22T03:10:08;14.77;;;11.52;;
10667;SDS011;5382;42.136;24.796;2023-06-22T03:12:36;13.02;;;11.38;;
10667;SDS011;5382;42.136;24.796;2023-06-22T03:15:04;12.27;;;9.85;;
10667;SDS011;5382;42.136;24.796;2023-06-22T03:17:32;11.30;;;10.20;;
10667;SDS011;5382;42.136;24.796;2023-06-22T03:19:59;12.07;;;10.38;;
10667;SDS011;5382;42.136;24.796;2023-06-22T03:22:26;16.85;;;10.63;;
10667;SDS011;5382;42.136;24.796;2023-06-22T03:24:53;10.50;;;9.50;;
10667;SDS011;5382;42.136;24.796;2023-06-22T03:27:21;9.90;;;8.90;;
10667;SDS011;5382;42.136;24.796;2023-06-22T03:29:48;10.27;;;9.25;;
10667;SDS011;5382;42.136;24.796;2023-06-22T03:32:14;11.60;;;9.57;;
10667;SDS011;5382;42.136;24.796;2023-06-22T03:34:41;11.95;;;8.63;;
10667;SDS011;5382;42.136;24.796;2023-06-22T03:37:12;10.00;;;9.02;;
10667;SDS011;5382;42.136;24.796;2023-06-22T03:39:40;11.43;;;9.88;;
10667;SDS011;5382;42.136;24.796;2023-06-22T03:42:07;11.07;;;8.95;;
10667;SDS011;5382;42.136;24.796;2023-06-22T03:44:35;10.00;;;9.00;;
10667;SDS011;5382;42.136;24.796;2023-06-22T03:47:02;9.75;;;8.52;;
10667;SDS011;5382;42.136;24.796;2023-06-22T03:49:32;9.23;;;8.32;;
10667;SDS011;5382;42.136;24.796;2023-06-22T03:51:59;8.95;;;7.60;;
10667;SDS011;5382;42.136;24.796;2023-06-22T03:54:27;13.73;;;8.75;;
10667;SDS011;5382;42.136;24.796;2023-06-22T03:56:54;9.13;;;8.32;;
10667;SDS011;5382;42.136;24.796;2023-06-22T03:59:22;10.43;;;8.60;;
10667;SDS011;5382;42.136;24.796;2023-06-22T04:01:51;9.68;;;8.68;;
10667;SDS011;5382;42.136;24.796;2023-06-22T04:04:17;9.18;;;8.27;;
10667;SDS011;5382;42.136;24.796;2023-06-22T04:06:44;9.23;;;8.32;;
10667;SDS011;5382;42.136;24.796;2023-06-22T04:09:11;9.05;;;8.25;;
10667;SDS011;5382;42.136;24.796;2023-06-22T04:11:38;9.38;;;8.38;;
10667;SDS011;5382;42.136;24.796;2023-06-22T04:14:05;8.73;;;7.88;;
10667;SDS011;5382;42.136;24.796;2023-06-22T04:16:32;10.13;;;8.98;;
10667;SDS011;5382;42.136;24.796;2023-06-22T04:19:00;9.38;;;8.48;;
10667;SDS011;5382;42.136;24.796;2023-06-22T04:21:27;11.57;;;8.40;;
10667;SDS011;5382;42.136;24.796;2023-06-22T04:23:54;10.55;;;8.63;;
10667;SDS011;5382;42.136;24.796;2023-06-22T04:26:21;9.60;;;8.70;;
10667;SDS011;5382;42.136;24.796;2023-06-22T04:28:47;9.70;;;8.70;;
10667;SDS011;5382;42.136;24.796;2023-06-22T04:31:16;9.50;;;8.60;;
10667;SDS011;5382;42.136;24.796;2023-06-22T04:33:44;10.27;;;9.20;;
10667;SDS011;5382;42.136;24.796;2023-06-22T04:36:12;9.45;;;8.45;;
10667;SDS011;5382;42.136;24.796;2023-06-22T04:38:40;10.10;;;9.10;;
10667;SDS011;5382;42.136;24.796;2023-06-22T04:41:07;10.05;;;8.90;;
10667;SDS011;5382;42.136;24.796;2023-06-22T04:43:39;9.60;;;8.70;;
10667;SDS011;5382;42.136;24.796;2023-06-22T04:46:06;10.90;;;8.65;;
10667;SDS011;5382;42.136;24.796;2023-06-22T04:48:32;9.68;;;8.75;;
10667;SDS011;5382;42.136;24.796;2023-06-22T04:50:59;10.40;;;9.18;;
10667;SDS011;5382;42.136;24.796;2023-06-22T04:53:31;10.43;;;9.35;;
10667;SDS011;5382;42.136;24.796;2023-06-22T04:55:58;9.75;;;8.75;;
10667;SDS011;5382;42.136;24.796;2023-06-22T04:58:25;11.10;;;9.50;;
10667;SDS011;5382;42.136;24.796;2023-06-22T05:00:53;11.63;;;8.90;;
10667;SDS011;5382;42.136;24.796;2023-06-22T05:03:22;10.90;;;8.30;;
10667;SDS011;5382;42.136;24.796;2023-06-22T05:05:51;11.45;;;8.90;;
10667;SDS011;5382;42.136;24.796;2023-06-22T05:08:18;9.20;;;8.30;;
10667;SDS011;5382;42.136;24.796;2023-06-22T05:10:47;11.00;;;8.82;;
10667;SDS011;5382;42.136;24.796;2023-06-22T05:13:13;11.02;;;8.95;;
10667;SDS011;5382;42.136;24.796;2023-06-22T05:15:40;10.68;;;9.20;;
10667;SDS011;5382;42.136;24.796;2023-06-22T05:18:07;10.25;;;8.77;;
10667;SDS011;5382;42.136;24.796;2023-06-22T05:20:34;11.20;;;8.43;;
10667;SDS011;5382;42.136;24.796;2023-06-22T05:23:01;16.95;;;9.07;;
10667;SDS011;5382;42.136;24.796;2023-06-22T05:25:28;9.93;;;8.60;;
10667;SDS011;5382;42.136;24.796;2023-06-22T05:27:59;14.18;;;8.60;;
10667;SDS011;5382;42.136;24.796;2023-06-22T05:30:25;9.18;;;8.38;;
10667;SDS011;5382;42.136;24.796;2023-06-22T05:32:53;11.75;;;9.45;;
10667;SDS011;5382;42.136;24.796;2023-06-22T05:35:20;11.68;;;10.25;;
10667;SDS011;5382;42.136;24.796;2023-06-22T05:37:47;10.80;;;9.60;;
10667;SDS011;5382;42.136;24.796;2023-06-22T05:40:14;15.05;;;9.30;;
10667;SDS011;5382;42.136;24.796;2023-06-22T05:42:41;13.32;;;9.15;;
10667;SDS011;5382;42.136;24.796;2023-06-22T05:45:09;10.45;;;9.25;;
10667;SDS011;5382;42.136;24.796;2023-06-22T05:47:36;10.20;;;8.95;;
10667;SDS011;5382;42.136;24.796;2023-06-22T05:50:03;13.55;;;9.55;;
10667;SDS011;5382;42.136;24.796;2023-06-22T05:52:33;13.45;;;9.27;;
10667;SDS011;5382;42.136;24.796;2023-06-22T05:55:01;10.50;;;8.45;;
10667;SDS011;5382;42.136;24.796;2023-06-22T05:57:28;9.02;;;8.23;;
10667;SDS011;5382;42.136;24.796;2023-06-22T05:59:55;12.20;;;8.85;;
10667;SDS011;5382;42.136;24.796;2023-06-22T06:02:23;12.00;;;8.20;;
10667;SDS011;5382;42.136;24.796;2023-06-22T06:04:50;10.10;;;9.20;;
10667;SDS011;5382;42.136;24.796;2023-06-22T06:07:17;8.18;;;7.38;;
10667;SDS011;5382;42.136;24.796;2023-06-22T06:09:44;9.90;;;8.18;;
10667;SDS011;5382;42.136;24.796;2023-06-22T06:12:11;9.93;;;8.32;;
10667;SDS011;5382;42.136;24.796;2023-06-22T06:14:38;9.35;;;7.53;;
10667;SDS011;5382;42.136;24.796;2023-06-22T06:17:05;8.88;;;7.70;;
10667;SDS011;5382;42.136;24.796;2023-06-22T06:19:33;8.75;;;7.13;;
10667;SDS011;5382;42.136;24.796;2023-06-22T06:22:00;8.57;;;7.60;;
10667;SDS011;5382;42.136;24.796;2023-06-22T06:24:27;8.30;;;7.35;;
10667;SDS011;5382;42.136;24.796;2023-06-22T06:26:53;8.15;;;7.35;;
10667;SDS011;5382;42.136;24.796;2023-06-22T06:29:20;8.50;;;7.05;;
10667;SDS011;5382;42.136;24.796;2023-06-22T06:31:48;8.85;;;7.68;;
10667;SDS011;5382;42.136;24.796;2023-06-22T06:34:15;10.52;;;7.53;;
10667;SDS011;5382;42.136;24.796;2023-06-22T06:36:43;8.85;;;7.95;;
10667;SDS011;5382;42.136;24.796;2023-06-22T06:39:10;9.05;;;8.15;;
10667;SDS011;5382;42.136;24.796;2023-06-22T06:41:37;8.25;;;7.38;;
10667;SDS011;5382;42.136;24.796;2023-06-22T06:44:04;8.30;;;7.60;;
10667;SDS011;5382;42.136;24.796;2023-06-22T06:46:30;8.15;;;7.15;;
10667;SDS011;5382;42.136;24.796;2023-06-22T06:48:57;11.02;;;7.15;;
10667;SDS011;5382;42.136;24.796;2023-06-22T06:51:24;8.38;;;7.50;;
10667;SDS011;5382;42.136;24.796;2023-06-22T06:53:52;10.10;;;7.38;;
10667;SDS011;5382;42.136;24.796;2023-06-22T06:56:19;9.07;;;7.57;;
10667;SDS011;5382;42.136;24.796;2023-06-22T06:58:46;8.13;;;7.35;;
10667;SDS011;5382;42.136;24.796;2023-06-22T07:01:15;10.88;;;7.25;;
10667;SDS011;5382;42.136;24.796;2023-06-22T07:03:42;7.75;;;6.95;;
10667;SDS011;5382;42.136;24.796;2023-06-22T07:06:09;9.63;;;7.03;;
10667;SDS011;5382;42.136;24.796;2023-06-22T07:08:36;8.73;;;7.35;;
10667;SDS011;5382;42.136;24.796;2023-06-22T07:11:06;7.50;;;6.72;;
10667;SDS011;5382;42.136;24.796;2023-06-22T07:13:33;7.35;;;6.57;;
10667;SDS011;5382;42.136;24.796;2023-06-22T07:15:59;7.60;;;6.80;;
10667;SDS011;5382;42.136;24.796;2023-06-22T07:18:26;7.63;;;6.90;;
10667;SDS011;5382;42.136;24.796;2023-06-22T07:20:53;8.18;;;6.97;;
10667;SDS011;5382;42.136;24.796;2023-06-22T07:23:20;12.43;;;7.13;;
10667;SDS011;5382;42.136;24.796;2023-06-22T07:25:47;7.70;;;6.88;;
10667;SDS011;5382;42.136;24.796;2023-06-22T07:28:15;7.78;;;7.07;;
10667;SDS011;5382;42.136;24.796;2023-06-22T07:30:42;9.07;;;6.47;;
10667;SDS011;5382;42.136;24.796;2023-06-22T07:33:09;8.90;;;7.15;;
10667;SDS011;5382;42.136;24.796;2023-06-22T07:35:36;8.55;;;6.70;;
10667;SDS011;5382;42.136;24.796;2023-06-22T07:38:02;8.63;;;6.60;;
10667;SDS011;5382;42.136;24.796;2023-06-22T07:40:29;7.38;;;6.65;;
10667;SDS011;5382;42.136;24.796;2023-06-22T07:42:57;7.93;;;6.82;;
10667;SDS011;5382;42.136;24.796;2023-06-22T07:45:25;7.25;;;6.65;;
10667;SDS011;5382;42.136;24.796;2023-06-22T07:47:52;8.57;;;7.63;;
10667;SDS011;5382;42.136;24.796;2023-06-22T07:50:19;9.43;;;6.43;;
10667;SDS011;5382;42.136;24.796;2023-06-22T07:52:46;8.45;;;6.50;;
10667;SDS011;5382;42.136;24.796;2023-06-22T07:55:13;7.18;;;6.47;;
10667;SDS011;5382;42.136;24.796;2023-06-22T07:57:40;9.48;;;6.97;;
10667;SDS011;5382;42.136;24.796;2023-06-22T08:00:07;6.85;;;6.20;;
10667;SDS011;5382;42.136;24.796;2023-06-22T08:02:39;7.53;;;6.03;;
10667;SDS011;5382;42.136;24.796;2023-06-22T08:05:06;6.95;;;6.40;;
10667;SDS011;5382;42.136;24.796;2023-06-22T08:07:33;7.18;;;6.45;;
10667;SDS011;5382;42.136;24.796;2023-06-22T08:10:00;7.43;;;6.30;;
10667;SDS011;5382;42.136;24.796;2023-06-22T08:12:27;6.55;;;5.95;;
10667;SDS011;5382;42.136;24.796;2023-06-22T08:14:54;7.70;;;6.10;;
10667;SDS011;5382;42.136;24.796;2023-06-22T08:17:22;7.43;;;5.93;;
10667;SDS011;5382;42.136;24.796;2023-06-22T08:19:50;6.55;;;5.38;;
10667;SDS011;5382;42.136;24.796;2023-06-22T08:22:17;6.93;;;5.53;;
10667;SDS011;5382;42.136;24.796;2023-06-22T08:24:44;5.85;;;5.28;;
10667;SDS011;5382;42.136;24.796;2023-06-22T08:27:10;7.50;;;5.72;;
10667;SDS011;5382;42.136;24.796;2023-06-22T08:29:38;7.68;;;5.70;;
10667;SDS011;5382;42.136;24.796;2023-06-22T08:32:07;6.22;;;5.63;;
10667;SDS011;5382;42.136;24.796;2023-06-22T08:34:35;6.03;;;5.53;;
10667;SDS011;5382;42.136;24.796;2023-06-22T08:37:06;7.00;;;6.00;;
10667;SDS011;5382;42.136;24.796;2023-06-22T08:39:33;6.65;;;6.03;;
10667;SDS011;5382;42.136;24.796;2023-06-22T08:42:00;10.23;;;6.05;;
10667;SDS011;5382;42.136;24.796;2023-06-22T08:44:26;5.50;;;5.05;;
10667;SDS011;5382;42.136;24.796;2023-06-22T08:46:53;6.28;;;5.68;;
10667;SDS011;5382;42.136;24.796;2023-06-22T08:49:20;6.45;;;5.93;;
10667;SDS011;5382;42.136;24.796;2023-06-22T08:51:47;6.75;;;6.15;;
10667;SDS011;5382;42.136;24.796;2023-06-22T08:54:16;7.03;;;6.43;;
10667;SDS011;5382;42.136;24.796;2023-06-22T08:56:42;7.85;;;5.95;;
10667;SDS011;5382;42.136;24.796;2023-06-22T08:59:10;7.55;;;5.65;;
10667;SDS011;5382;42.136;24.796;2023-06-22T09:01:37;7.25;;;5.82;;
10667;SDS011;5382;42.136;24.796;2023-06-22T09:04:04;8.20;;;5.70;;
10667;SDS011;5382;42.136;24.796;2023-06-22T09:06:32;8.52;;;7.60;;
10667;SDS011;5382;42.136;24.796;2023-06-22T09:08:59;6.00;;;5.40;;
10667;SDS011;5382;42.136;24.796;2023-06-22T09:11:27;7.43;;;6.15;;
10667;SDS011;5382;42.136;24.796;2023-06-22T09:13:54;8.82;;;5.32;;
10667;SDS011;5382;42.136;24.796;2023-06-22T09:16:21;6.88;;;6.05;;
10667;SDS011;5382;42.136;24.796;2023-06-22T09:18:48;6.57;;;5.93;;
10667;SDS011;5382;42.136;24.796;2023-06-22T09:21:15;6.18;;;5.38;;
10667;SDS011;5382;42.136;24.796;2023-06-22T09:23:42;8.27;;;6.03;;
10667;SDS011;5382;42.136;24.796;2023-06-22T09:26:10;5.35;;;4.85;;
10667;SDS011;5382;42.136;24.796;2023-06-22T09:28:39;7.05;;;5.78;;
10667;SDS011;5382;42.136;24.796;2023-06-22T09:31:05;9.02;;;5.38;;
10667;SDS011;5382;42.136;24.796;2023-06-22T09:33:32;9.20;;;5.28;;
10667;SDS011;5382;42.136;24.796;2023-06-22T09:35:59;5.93;;;5.43;;
10667;SDS011;5382;42.136;24.796;2023-06-22T09:38:26;9.43;;;5.60;;
10667;SDS011;5382;42.136;24.796;2023-06-22T09:40:53;6.35;;;5.75;;
10667;SDS011;5382;42.136;24.796;2023-06-22T09:43:19;6.72;;;6.05;;
10667;SDS011;5382;42.136;24.796;2023-06-22T09:45:48;17.60;;;6.07;;
10667;SDS011;5382;42.136;24.796;2023-06-22T09:48:14;16.42;;;6.00;;
10667;SDS011;5382;42.136;24.796;2023-06-22T09:50:41;6.63;;;5.10;;
10667;SDS011;5382;42.136;24.796;2023-06-22T09:53:08;5.55;;;5.05;;
10667;SDS011;5382;42.136;24.796;2023-06-22T09:55:35;5.93;;;5.43;;
10667;SDS011;5382;42.136;24.796;2023-06-22T09:58:01;5.82;;;5.32;;
10667;SDS011;5382;42.136;24.796;2023-06-22T10:00:28;6.18;;;5.55;;
10667;SDS011;5382;42.136;24.796;2023-06-22T10:02:56;6.43;;;5.93;;
10667;SDS011;5382;42.136;24.796;2023-06-22T10:05:23;6.72;;;5.03;;
10667;SDS011;5382;42.136;24.796;2023-06-22T10:07:51;5.65;;;5.20;;
10667;SDS011;5382;42.136;24.796;2023-06-22T10:10:17;6.10;;;5.60;;
10667;SDS011;5382;42.136;24.796;2023-06-22T10:12:45;6.80;;;5.90;;
10667;SDS011;5382;42.136;24.796;2023-06-22T10:15:13;6.72;;;5.53;;
10667;SDS011;5382;42.136;24.796;2023-06-22T10:17:40;6.03;;;5.40;;
10667;SDS011;5382;42.136;24.796;2023-06-22T10:20:09;7.68;;;5.53;;
10667;SDS011;5382;42.136;24.796;2023-06-22T10:22:40;5.85;;;5.30;;
10667;SDS011;5382;42.136;24.796;2023-06-22T10:25:07;6.47;;;5.47;;
10667;SDS011;5382;42.136;24.796;2023-06-22T10:27:34;7.00;;;6.30;;
10667;SDS011;5382;42.136;24.796;2023-06-22T10:30:01;5.53;;;5.13;;
10667;SDS011;5382;42.136;24.796;2023-06-22T10:32:30;6.18;;;5.55;;
10667;SDS011;5382;42.136;24.796;2023-06-22T10:34:57;5.82;;;5.32;;
10667;SDS011;5382;42.136;24.796;2023-06-22T10:37:25;6.32;;;5.82;;
10667;SDS011;5382;42.136;24.796;2023-06-22T10:39:52;5.90;;;5.32;;
10667;SDS011;5382;42.136;24.796;2023-06-22T10:42:18;7.22;;;5.45;;
10667;SDS011;5382;42.136;24.796;2023-06-22T10:44:45;7.40;;;5.15;;
10667;SDS011;5382;42.136;24.796;2023-06-22T10:47:12;6.70;;;5.00;;
10667;SDS011;5382;42.136;24.796;2023-06-22T10:49:39;7.00;;;5.70;;
10667;SDS011;5382;42.136;24.796;2023-06-22T10:52:07;7.18;;;5.90;;
10667;SDS011;5382;42.136;24.796;2023-06-22T10:54:38;7.00;;;5.75;;
10667;SDS011;5382;42.136;24.796;2023-06-22T10:57:05;7.55;;;6.03;;
10667;SDS011;5382;42.136;24.796;2023-06-22T10:59:32;6.15;;;5.55;;
10667;SDS011;5382;42.136;24.796;2023-06-22T11:01:59;13.48;;;6.85;;
10667;SDS011;5382;42.136;24.796;2023-06-22T11:04:25;6.88;;;5.43;;
10667;SDS011;5382;42.136;24.796;2023-06-22T11:06:52;7.85;;;5.97;;
10667;SDS011;5382;42.136;24.796;2023-06-22T11:09:21;7.13;;;5.40;;
10667;SDS011;5382;42.136;24.796;2023-06-22T11:11:50;10.27;;;5.68;;
10667;SDS011;5382;42.136;24.796;2023-06-22T11:14:18;6.20;;;5.38;;
10667;SDS011;5382;42.136;24.796;2023-06-22T11:16:45;6.60;;;5.10;;
10667;SDS011;5382;42.136;24.796;2023-06-22T11:19:12;7.47;;;5.25;;
10667;SDS011;5382;42.136;24.796;2023-06-22T11:21:39;5.90;;;5.35;;
10667;SDS011;5382;42.136;24.796;2023-06-22T11:24:06;5.97;;;5.47;;
10667;SDS011;5382;42.136;24.796;2023-06-22T11:26:33;5.40;;;5.00;;
10667;SDS011;5382;42.136;24.796;2023-06-22T11:29:01;16.75;;;5.78;;
10667;SDS011;5382;42.136;24.796;2023-06-22T11:31:30;7.05;;;5.35;;
10667;SDS011;5382;42.136;24.796;2023-06-22T11:33:57;6.80;;;5.18;;
10667;SDS011;5382;42.136;24.796;2023-06-22T11:36:24;7.05;;;5.43;;
10667;SDS011;5382;42.136;24.796;2023-06-22T11:38:51;5.65;;;5.15;;
10667;SDS011;5382;42.136;24.796;2023-06-22T11:41:18;6.32;;;5.45;;
10667;SDS011;5382;42.136;24.796;2023-06-22T11:43:45;5.93;;;5.30;;
10667;SDS011;5382;42.136;24.796;2023-06-22T11:46:13;6.00;;;5.38;;
10667;SDS011;5382;42.136;24.796;2023-06-22T11:48:40;11.95;;;5.15;;
10667;SDS011;5382;42.136;24.796;2023-06-22T11:51:06;10.23;;;5.80;;
10667;SDS011;5382;42.136;24.796;2023-06-22T11:53:33;120.82;;;15.23;;
10667;SDS011;5382;42.136;24.796;2023-06-22T11:56:01;5.68;;;4.95;;
10667;SDS011;5382;42.136;24.796;2023-06-22T11:58:28;9.38;;;5.43;;
10667;SDS011;5382;42.136;24.796;2023-06-22T12:00:55;5.75;;;5.32;;
10667;SDS011;5382;42.136;24.796;2023-06-22T12:03:23;5.38;;;4.95;;
10667;SDS011;5382;42.136;24.796;2023-06-22T12:05:50;5.75;;;5.22;;
10667;SDS011;5382;42.136;24.796;2023-06-22T12:08:17;21.30;;;6.40;;
10667;SDS011;5382;42.136;24.796;2023-06-22T12:10:44;5.97;;;5.43;;
10667;SDS011;5382;42.136;24.796;2023-06-22T12:13:11;5.45;;;4.97;;
10667;SDS011;5382;42.136;24.796;2023-06-22T12:15:38;6.25;;;5.35;;
10667;SDS011;5382;42.136;24.796;2023-06-22T12:18:05;7.70;;;5.25;;
10667;SDS011;5382;42.136;24.796;2023-06-22T12:20:33;299.40;;;25.45;;
10667;SDS011;5382;42.136;24.796;2023-06-22T12:23:00;6.65;;;4.95;;
10667;SDS011;5382;42.136;24.796;2023-06-22T12:25:27;10.10;;;5.47;;
10667;SDS011;5382;42.136;24.796;2023-06-22T12:27:54;10.75;;;5.50;;
10667;SDS011;5382;42.136;24.796;2023-06-22T12:30:21;5.43;;;4.90;;
10667;SDS011;5382;42.136;24.796;2023-06-22T12:32:48;5.30;;;4.88;;
10667;SDS011;5382;42.136;24.796;2023-06-22T12:35:16;30.85;;;6.60;;
10667;SDS011;5382;42.136;24.796;2023-06-22T12:37:44;5.35;;;4.95;;
10667;SDS011;5382;42.136;24.796;2023-06-22T12:40:11;7.03;;;5.32;;
10667;SDS011;5382;42.136;24.796;2023-06-22T12:42:38;6.55;;;5.22;;
10667;SDS011;5382;42.136;24.796;2023-06-22T12:45:07;7.35;;;4.90;;
10667;SDS011;5382;42.136;24.796;2023-06-22T12:47:35;23.65;;;6.22;;
10667;SDS011;5382;42.136;24.796;2023-06-22T12:50:02;6.93;;;6.40;;
10667;SDS011;5382;42.136;24.796;2023-06-22T12:52:29;6.80;;;5.95;;
10667;SDS011;5382;42.136;24.796;2023-06-22T12:54:58;11.02;;;5.55;;
10667;SDS011;5382;42.136;24.796;2023-06-22T12:57:25;7.25;;;5.38;;
10667;SDS011;5382;42.136;24.796;2023-06-22T12:59:52;6.20;;;5.60;;
10667;SDS011;5382;42.136;24.796;2023-06-22T13:02:19;9.93;;;5.70;;
10667;SDS011;5382;42.136;24.796;2023-06-22T13:04:46;9.65;;;5.28;;
10667;SDS011;5382;42.136;24.796;2023-06-22T13:07:13;9.40;;;5.15;;
10667;SDS011;5382;42.136;24.796;2023-06-22T13:09:40;5.90;;;5.40;;
10667;SDS011;5382;42.136;24.796;2023-06-22T13:12:08;23.23;;;6.35;;
10667;SDS011;5382;42.136;24.796;2023-06-22T13:14:35;6.47;;;5.88;;
10667;SDS011;5382;42.136;24.796;2023-06-22T13:17:02;5.60;;;5.20;;
10667;SDS011;5382;42.136;24.796;2023-06-22T13:19:29;6.90;;;5.43;;
10667;SDS011;5382;42.136;24.796;2023-06-22T13:21:57;6.50;;;5.72;;
10667;SDS011;5382;42.136;24.796;2023-06-22T13:24:25;6.05;;;5.55;;
10667;SDS011;5382;42.136;24.796;2023-06-22T13:26:52;7.22;;;5.63;;
10667;SDS011;5382;42.136;24.796;2023-06-22T13:29:20;6.07;;;5.57;;
10667;SDS011;5382;42.136;24.796;2023-06-22T13:31:47;6.43;;;5.82;;
10667;SDS011;5382;42.136;24.796;2023-06-22T13:34:14;5.72;;;5.18;;
10667;SDS011;5382;42.136;24.796;2023-06-22T13:36:40;7.38;;;5.07;;
10667;SDS011;5382;42.136;24.796;2023-06-22T13:39:07;5.97;;;5.38;;
10667;SDS011;5382;42.136;24.796;2023-06-22T13:41:34;8.88;;;8.13;;
10667;SDS011;5382;42.136;24.796;2023-06-22T13:44:01;14.77;;;6.30;;
10667;SDS011;5382;42.136;24.796;2023-06-22T13:46:29;8.32;;;5.75;;
10667;SDS011;5382;42.136;24.796;2023-06-22T13:48:56;6.93;;;6.15;;
10667;SDS011;5382;42.136;24.796;2023-06-22T13:51:22;9.98;;;6.55;;
10667;SDS011;5382;42.136;24.796;2023-06-22T13:53:50;14.45;;;6.53;;
10667;SDS011;5382;42.136;24.796;2023-06-22T13:56:17;10.80;;;6.30;;
10667;SDS011;5382;42.136;24.796;2023-06-22T13:58:44;10.38;;;5.85;;
10667;SDS011;5382;42.136;24.796;2023-06-22T14:01:11;8.80;;;6.13;;
10667;SDS011;5382;42.136;24.796;2023-06-22T14:03:39;23.40;;;7.32;;
10667;SDS011;5382;42.136;24.796;2023-06-22T14:06:05;11.77;;;6.13;;
10667;SDS011;5382;42.136;24.796;2023-06-22T14:08:35;20.13;;;6.75;;
10667;SDS011;5382;42.136;24.796;2023-06-22T14:11:02;19.05;;;6.80;;
10667;SDS011;5382;42.136;24.796;2023-06-22T14:13:29;11.80;;;6.57;;
10667;SDS011;5382;42.136;24.796;2023-06-22T14:15:56;25.45;;;7.22;;
10667;SDS011;5382;42.136;24.796;2023-06-22T14:18:23;6.78;;;5.85;;
10667;SDS011;5382;42.136;24.796;2023-06-22T14:20:51;8.82;;;6.60;;
10667;SDS011;5382;42.136;24.796;2023-06-22T14:23:18;10.75;;;7.07;;
10667;SDS011;5382;42.136;24.796;2023-06-22T14:25:44;67.57;;;9.55;;
10667;SDS011;5382;42.136;24.796;2023-06-22T14:28:11;10.52;;;6.32;;
10667;SDS011;5382;42.136;24.796;2023-06-22T14:30:38;9.00;;;6.20;;
10667;SDS011;5382;42.136;24.796;2023-06-22T14:33:05;10.30;;;6.50;;
10667;SDS011;5382;42.136;24.796;2023-06-22T14:35:32;22.95;;;7.10;;
10667;SDS011;5382;42.136;24.796;2023-06-22T14:38:00;12.25;;;6.97;;
10667;SDS011;5382;42.136;24.796;2023-06-22T14:40:27;14.32;;;7.60;;
10667;SDS011;5382;42.136;24.796;2023-06-22T14:42:54;22.15;;;8.20;;